Time;durP1;ratioP1;P1;durP2;ratioP2;P2;SDS_P1;SDS_P2;PMS_P1;PMS_P2;Temp;Humidity;BMP_temperature;BMP_pressure;BME280_temperature;BME280_humidity;BME280_pressure;Samples;Min_cycle;Max_cycle;Signal;HPM_P1;HPM_P2
2023/12/26 00:01:00;;;;;;;4.00;2.93;;;10.00;99.90;;;;;;5114849;28;20468;-81
2023/12/26 00:03:29;;;;;;;4.17;3.27;;;10.00;99.90;;;;;;5113237;28;20436;-79
2023/12/26 00:05:57;;;;;;;4.13;3.43;;;10.00;99.90;;;;;;5117789;28;20472;-79
2023/12/26 00:08:26;;;;;;;5.13;3.87;;;10.00;99.90;;;;;;5116763;28;20473;-80
2023/12/26 00:10:56;;;;;;;4.83;3.93;;;10.00;99.90;;;;;;5117804;28;20445;-80
2023/12/26 00:13:24;;;;;;;4.40;4.00;;;10.00;99.90;;;;;;5116284;28;20424;-80
2023/12/26 00:15:52;;;;;;;4.43;3.70;;;10.00;99.90;;;;;;5116125;28;20566;-81
2023/12/26 00:18:21;;;;;;;5.80;4.60;;;10.00;99.90;;;;;;5117251;28;20452;-81
2023/12/26 00:20:51;;;;;;;4.10;3.80;;;10.00;99.90;;;;;;5118797;28;20449;-81
2023/12/26 00:23:20;;;;;;;5.37;3.70;;;10.00;99.90;;;;;;5115729;28;20457;-79
2023/12/26 00:25:48;;;;;;;3.27;2.93;;;10.00;99.90;;;;;;5111859;28;20460;-81
2023/12/26 00:28:19;;;;;;;3.33;2.67;;;10.00;99.90;;;;;;5111124;28;20456;-77
2023/12/26 00:30:47;;;;;;;3.73;2.80;;;10.00;99.90;;;;;;5111743;28;20447;-82
2023/12/26 00:33:16;;;;;;;2.90;2.60;;;10.00;99.90;;;;;;5109327;28;20448;-81
2023/12/26 00:35:44;;;;;;;3.30;3.00;;;10.00;99.90;;;;;;5098272;28;20471;-81
2023/12/26 00:38:13;;;;;;;3.00;2.70;;;10.00;99.90;;;;;;5097081;28;20551;-81
2023/12/26 00:40:41;;;;;;;3.47;3.17;;;10.00;99.90;;;;;;5098011;28;20461;-81
2023/12/26 00:43:09;;;;;;;3.53;3.20;;;10.00;99.90;;;;;;5098081;28;20482;-81
2023/12/26 00:45:39;;;;;;;5.50;3.70;;;10.00;99.90;;;;;;5098307;28;20458;-81
2023/12/26 00:48:08;;;;;;;3.13;2.80;;;10.00;99.90;;;;;;5096508;28;20444;-82
2023/12/26 00:50:41;;;;;;;3.17;2.90;;;10.00;99.90;;;;;;5097801;28;20437;-81
2023/12/26 00:53:10;;;;;;;3.30;3.00;;;10.00;99.90;;;;;;5097237;28;20441;-82
2023/12/26 00:55:39;;;;;;;2.57;2.30;;;10.00;99.90;;;;;;5098554;28;20441;-81
2023/12/26 00:58:07;;;;;;;3.77;2.50;;;10.00;99.90;;;;;;5096454;28;20807;-81
2023/12/26 01:00:35;;;;;;;2.80;2.50;;;10.00;99.90;;;;;;5096911;28;20531;-82
2023/12/26 01:03:05;;;;;;;2.70;2.43;;;10.00;99.90;;;;;;5096878;28;20478;-81
2023/12/26 01:05:34;;;;;;;2.53;2.33;;;10.00;99.90;;;;;;5097828;28;20841;-81
2023/12/26 01:08:02;;;;;;;2.60;2.00;;;10.00;99.90;;;;;;5096822;28;20470;-81
2023/12/26 01:10:30;;;;;;;2.50;2.30;;;10.00;99.90;;;;;;5096728;28;20452;-81
2023/12/26 01:12:59;;;;;;;2.80;2.37;;;10.00;99.90;;;;;;5096506;28;20436;-81
2023/12/26 01:15:27;;;;;;;3.33;2.07;;;10.00;99.90;;;;;;5096221;28;20456;-81
2023/12/26 01:17:55;;;;;;;2.70;2.00;;;10.00;99.90;;;;;;5095311;28;20444;-81
2023/12/26 01:20:27;;;;;;;2.30;2.10;;;10.00;99.90;;;;;;5094333;28;20448;-81
2023/12/26 01:22:55;;;;;;;2.80;2.20;;;10.00;99.90;;;;;;5095194;28;20468;-81
2023/12/26 01:25:24;;;;;;;2.57;2.23;;;10.00;99.90;;;;;;5095144;28;20929;-81
2023/12/26 01:27:52;;;;;;;2.87;2.00;;;10.00;99.90;;;;;;5095989;28;20456;-81
2023/12/26 01:30:21;;;;;;;2.40;2.10;;;10.00;99.90;;;;;;5096060;28;20462;-81
2023/12/26 01:32:50;;;;;;;2.23;1.90;;;9.90;99.90;;;;;;5096610;28;20440;-81
2023/12/26 01:35:18;;;;;;;1.90;1.57;;;9.90;99.90;;;;;;5097296;28;20841;-80
2023/12/26 01:37:48;;;;;;;2.60;1.97;;;9.90;99.90;;;;;;5095679;28;20460;-80
2023/12/26 01:40:16;;;;;;;1.90;1.50;;;9.90;99.90;;;;;;5095841;28;20456;-81
2023/12/26 01:42:46;;;;;;;2.20;1.50;;;10.00;99.90;;;;;;5095639;28;20503;-81
2023/12/26 01:45:14;;;;;;;1.77;1.30;;;9.90;99.90;;;;;;5097259;28;20579;-81
2023/12/26 01:47:46;;;;;;;1.73;1.30;;;9.90;99.90;;;;;;5096102;28;20468;-80
2023/12/26 01:50:16;;;;;;;1.80;1.67;;;9.90;99.90;;;;;;5096798;28;20424;-81
2023/12/26 01:52:45;;;;;;;2.03;1.60;;;9.90;99.90;;;;;;5096161;28;20444;-81
2023/12/26 01:55:17;;;;;;;2.30;1.47;;;9.90;99.90;;;;;;5095250;28;20968;-80
2023/12/26 01:57:48;;;;;;;1.57;1.13;;;9.90;99.90;;;;;;5094945;28;20468;-81
2023/12/26 02:00:18;;;;;;;1.30;1.03;;;9.90;99.90;;;;;;5095736;28;20440;-81
2023/12/26 02:02:47;;;;;;;2.13;1.10;;;9.90;99.90;;;;;;5097078;28;20832;-82
2023/12/26 02:05:17;;;;;;;2.10;1.47;;;9.90;99.90;;;;;;5095148;28;20445;-82
2023/12/26 02:07:45;;;;;;;2.80;1.60;;;9.90;99.90;;;;;;5095536;28;20472;-81
2023/12/26 02:10:15;;;;;;;1.63;1.23;;;9.90;99.90;;;;;;5096896;28;20877;-81
2023/12/26 02:12:43;;;;;;;1.87;1.30;;;9.90;99.90;;;;;;5095259;28;20551;-81
2023/12/26 02:15:14;;;;;;;2.07;1.20;;;9.80;99.90;;;;;;5094518;28;20445;-82
2023/12/26 02:17:43;;;;;;;1.97;1.30;;;9.80;99.90;;;;;;5094391;28;20864;-81
2023/12/26 02:20:11;;;;;;;1.63;1.20;;;9.90;99.90;;;;;;5094394;28;20452;-83
2023/12/26 02:22:40;;;;;;;1.83;1.10;;;9.80;99.90;;;;;;5094166;28;20468;-82
2023/12/26 02:25:10;;;;;;;1.83;1.23;;;9.90;99.90;;;;;;5094103;28;20436;-82
2023/12/26 02:27:39;;;;;;;2.50;1.23;;;9.90;99.90;;;;;;5094151;28;20855;-82
2023/12/26 02:30:09;;;;;;;2.40;1.20;;;9.80;99.90;;;;;;5094186;28;20471;-82
2023/12/26 02:32:39;;;;;;;1.40;1.10;;;9.80;99.90;;;;;;5097744;28;20436;-81
2023/12/26 02:35:08;;;;;;;1.40;1.10;;;9.90;99.90;;;;;;5098462;28;20797;-83
2023/12/26 02:37:38;;;;;;;2.03;1.50;;;9.80;99.90;;;;;;5098355;28;20515;-82
2023/12/26 02:40:07;;;;;;;2.20;1.30;;;9.90;99.90;;;;;;5098169;28;20957;-81
2023/12/26 02:42:37;;;;;;;1.60;1.33;;;9.90;99.90;;;;;;5098285;28;20491;-82
2023/12/26 02:45:07;;;;;;;3.10;1.73;;;9.90;99.90;;;;;;5097668;28;20440;-81
2023/12/26 02:47:35;;;;;;;1.80;1.50;;;9.90;99.90;;;;;;5097751;28;20527;-80
2023/12/26 02:50:06;;;;;;;2.37;1.93;;;9.90;99.90;;;;;;5097752;28;20482;-81
2023/12/26 02:52:34;;;;;;;2.30;2.10;;;9.90;99.90;;;;;;5100180;28;20419;-83
2023/12/26 02:55:02;;;;;;;2.50;2.30;;;9.90;99.90;;;;;;5098038;28;20459;-81
2023/12/26 02:57:31;;;;;;;1.90;1.70;;;9.90;99.90;;;;;;5097460;28;20468;-80
2023/12/26 03:00:00;;;;;;;2.10;1.50;;;9.90;99.90;;;;;;5097529;28;20458;-82
2023/12/26 03:02:29;;;;;;;1.60;1.50;;;9.90;99.90;;;;;;5097824;28;20467;-83
2023/12/26 03:04:57;;;;;;;2.47;1.70;;;9.90;99.90;;;;;;5098899;28;20490;-81
2023/12/26 03:07:26;;;;;;;1.80;1.40;;;10.00;99.90;;;;;;5097667;28;20528;-81
2023/12/26 03:09:54;;;;;;;2.37;1.60;;;9.90;99.90;;;;;;5099748;28;20448;-83
2023/12/26 03:12:22;;;;;;;4.10;1.60;;;9.90;99.90;;;;;;5097709;28;20501;-82
2023/12/26 03:14:51;;;;;;;2.10;1.40;;;9.90;99.90;;;;;;5097786;28;20455;-81
2023/12/26 03:17:20;;;;;;;2.73;1.57;;;9.90;99.90;;;;;;5097162;28;20474;-81
2023/12/26 03:19:49;;;;;;;1.60;1.43;;;10.00;99.90;;;;;;5097293;28;20440;-81
2023/12/26 03:22:18;;;;;;;2.43;1.87;;;10.00;99.90;;;;;;5098755;28;20529;-82
2023/12/26 03:24:47;;;;;;;3.00;2.20;;;9.90;99.90;;;;;;5097607;28;20472;-82
2023/12/26 03:27:16;;;;;;;2.17;1.97;;;10.00;99.90;;;;;;5097267;28;20468;-82
2023/12/26 03:29:44;;;;;;;2.33;1.73;;;9.90;99.90;;;;;;5097849;28;20444;-81
2023/12/26 03:32:14;;;;;;;3.10;1.53;;;9.90;99.90;;;;;;5099704;28;20444;-82
2023/12/26 03:34:44;;;;;;;3.43;1.80;;;10.00;99.90;;;;;;5099670;28;20451;-82
2023/12/26 03:37:12;;;;;;;2.73;1.40;;;9.90;99.90;;;;;;5098633;28;20925;-82
2023/12/26 03:39:41;;;;;;;2.77;1.60;;;10.00;99.90;;;;;;5099045;28;20452;-82
2023/12/26 03:42:10;;;;;;;3.37;1.80;;;10.00;99.90;;;;;;5098649;28;20440;-82
2023/12/26 03:44:38;;;;;;;3.00;1.50;;;9.90;99.90;;;;;;5098082;28;20956;-81
2023/12/26 03:47:07;;;;;;;2.50;1.50;;;10.00;99.90;;;;;;5098612;28;20989;-81
2023/12/26 03:49:36;;;;;;;3.40;1.50;;;10.00;99.90;;;;;;5098756;28;20448;-82
2023/12/26 03:52:06;;;;;;;3.63;1.53;;;10.00;99.90;;;;;;5097739;28;20445;-81
2023/12/26 03:54:35;;;;;;;4.47;1.80;;;10.00;99.90;;;;;;5098188;28;20448;-81
2023/12/26 03:57:03;;;;;;;5.60;2.50;;;9.90;99.90;;;;;;5098097;28;20897;-81
2023/12/26 03:59:32;;;;;;;3.37;1.60;;;9.90;99.90;;;;;;5099450;28;20440;-81
2023/12/26 04:02:01;;;;;;;3.07;2.20;;;9.90;99.90;;;;;;5098836;28;20440;-81
2023/12/26 04:04:29;;;;;;;5.90;1.80;;;10.00;99.90;;;;;;5098367;28;20476;-82
2023/12/26 04:06:58;;;;;;;3.03;1.67;;;9.90;99.90;;;;;;5098177;28;20468;-81
2023/12/26 04:09:28;;;;;;;5.07;2.20;;;10.00;99.90;;;;;;5098151;28;20478;-83
2023/12/26 04:11:56;;;;;;;5.03;2.33;;;10.00;99.90;;;;;;5097315;28;20821;-81
2023/12/26 04:14:25;;;;;;;5.10;2.30;;;9.90;99.90;;;;;;5097511;28;20449;-82
2023/12/26 04:16:53;;;;;;;5.83;2.57;;;10.00;99.90;;;;;;5097424;28;20820;-81
2023/12/26 04:19:22;;;;;;;7.07;2.87;;;10.00;99.90;;;;;;5097704;28;20452;-78
2023/12/26 04:21:50;;;;;;;7.30;2.83;;;9.90;99.90;;;;;;5097472;28;20933;-80
2023/12/26 04:24:19;;;;;;;5.20;2.70;;;9.90;99.90;;;;;;5097292;28;20472;-81
2023/12/26 04:26:48;;;;;;;5.10;2.50;;;9.90;99.90;;;;;;5096830;28;20985;-80
2023/12/26 04:29:17;;;;;;;9.03;3.17;;;9.90;99.90;;;;;;5097043;28;20451;-81
2023/12/26 04:31:45;;;;;;;6.50;3.10;;;9.90;99.90;;;;;;5097024;28;20448;-81
2023/12/26 04:34:14;;;;;;;8.20;3.67;;;9.90;99.90;;;;;;5096700;28;20519;-81
2023/12/26 04:36:42;;;;;;;5.53;2.90;;;9.90;99.90;;;;;;5096745;28;21006;-80
2023/12/26 04:39:11;;;;;;;7.30;3.20;;;9.80;99.90;;;;;;5097281;28;20452;-81
2023/12/26 04:41:40;;;;;;;5.30;3.33;;;9.80;99.90;;;;;;5096143;28;20873;-81
2023/12/26 04:44:10;;;;;;;8.67;2.73;;;9.80;99.90;;;;;;5096773;28;20476;-81
2023/12/26 04:46:39;;;;;;;6.00;3.27;;;9.80;99.90;;;;;;5097783;28;20965;-81
2023/12/26 04:49:07;;;;;;;6.20;2.80;;;9.80;99.90;;;;;;5096079;28;21016;-81
2023/12/26 04:51:35;;;;;;;6.57;2.80;;;9.80;99.90;;;;;;5096933;28;20493;-80
2023/12/26 04:54:04;;;;;;;9.10;3.40;;;9.80;99.90;;;;;;5095975;28;20453;-81
2023/12/26 04:56:32;;;;;;;10.53;3.60;;;9.80;99.90;;;;;;5095612;28;20464;-79
2023/12/26 04:59:01;;;;;;;7.90;3.53;;;9.70;99.90;;;;;;5096386;28;20509;-79
2023/12/26 05:01:30;;;;;;;6.93;3.57;;;9.70;99.90;;;;;;5097432;28;20448;-82
2023/12/26 05:03:59;;;;;;;6.07;2.80;;;9.70;99.90;;;;;;5096390;28;20471;-80
2023/12/26 05:06:27;;;;;;;4.93;3.10;;;9.70;99.90;;;;;;5096824;28;20475;-82
2023/12/26 05:08:56;;;;;;;11.23;3.27;;;9.70;99.90;;;;;;5097231;28;20535;-81
2023/12/26 05:11:25;;;;;;;9.00;3.53;;;9.70;99.90;;;;;;5096543;28;20447;-80
2023/12/26 05:13:54;;;;;;;6.27;3.03;;;9.70;99.90;;;;;;5097333;28;20444;-81
2023/12/26 05:16:22;;;;;;;5.03;2.50;;;9.70;99.90;;;;;;5097483;28;20464;-81
2023/12/26 05:18:52;;;;;;;8.20;3.40;;;9.70;99.90;;;;;;5098850;28;20442;-82
2023/12/26 05:21:22;;;;;;;5.50;2.70;;;9.70;99.90;;;;;;5098916;28;20436;-80
2023/12/26 05:23:51;;;;;;;6.40;2.80;;;9.60;99.90;;;;;;5097852;28;20449;-80
2023/12/26 05:26:19;;;;;;;6.60;2.77;;;9.60;99.90;;;;;;5097927;28;20472;-82
2023/12/26 05:28:49;;;;;;;7.17;2.43;;;9.60;99.90;;;;;;5097679;28;20449;-82
2023/12/26 05:31:20;;;;;;;7.53;2.60;;;9.60;99.90;;;;;;5097268;28;20447;-82
2023/12/26 05:33:49;;;;;;;6.00;2.90;;;9.60;99.90;;;;;;5097231;28;20429;-79
2023/12/26 05:36:19;;;;;;;7.93;2.70;;;9.60;99.90;;;;;;5097038;28;21083;-80
2023/12/26 05:38:48;;;;;;;10.67;3.07;;;9.60;99.90;;;;;;5098609;28;20505;-81
2023/12/26 05:41:17;;;;;;;6.27;2.47;;;9.60;99.90;;;;;;5098131;28;20450;-82
2023/12/26 05:43:46;;;;;;;7.00;2.27;;;9.50;99.90;;;;;;5096960;28;20912;-79
2023/12/26 05:46:15;;;;;;;7.63;3.07;;;9.50;99.90;;;;;;5097415;28;20521;-79
2023/12/26 05:48:43;;;;;;;5.50;2.60;;;9.50;99.90;;;;;;5096911;28;20452;-79
2023/12/26 05:51:12;;;;;;;5.70;2.70;;;9.50;99.90;;;;;;5096249;28;20436;-80
2023/12/26 05:53:42;;;;;;;7.40;2.67;;;9.50;99.90;;;;;;5095749;28;20502;-77
2023/12/26 05:56:10;;;;;;;7.00;2.90;;;9.50;99.90;;;;;;5096353;28;20459;-79
2023/12/26 05:58:40;;;;;;;8.50;2.70;;;9.40;99.90;;;;;;5095636;28;20444;-79
2023/12/26 06:01:10;;;;;;;8.47;2.60;;;9.40;99.90;;;;;;5095330;28;20559;-77
2023/12/26 06:03:39;;;;;;;10.17;3.57;;;9.40;99.90;;;;;;5095935;28;20472;-80
2023/12/26 06:06:11;;;;;;;8.97;3.20;;;9.40;99.90;;;;;;5094700;28;20465;-80
2023/12/26 06:08:40;;;;;;;13.17;3.83;;;9.30;99.90;;;;;;5095431;28;20436;-79
2023/12/26 06:11:10;;;;;;;10.30;3.70;;;9.30;99.90;;;;;;5095259;28;20440;-78
2023/12/26 06:13:39;;;;;;;9.97;3.33;;;9.30;99.90;;;;;;5095697;28;20456;-79
2023/12/26 06:16:07;;;;;;;13.10;3.60;;;9.30;99.90;;;;;;5095742;28;21037;-78
2023/12/26 06:18:36;;;;;;;8.30;2.90;;;9.30;99.90;;;;;;5095165;28;20460;-77
2023/12/26 06:21:05;;;;;;;9.27;3.50;;;9.20;99.90;;;;;;5094822;28;20519;-81
2023/12/26 06:23:34;;;;;;;10.47;3.07;;;9.20;99.90;;;;;;5095171;28;20495;-81
2023/12/26 06:26:02;;;;;;;12.70;3.40;;;9.20;99.90;;;;;;5095461;28;20551;-78
2023/12/26 06:28:36;;;;;;;10.60;3.30;;;9.20;99.90;;;;;;5095145;28;20444;-77
2023/12/26 06:31:04;;;;;;;12.97;3.60;;;9.20;99.90;;;;;;5095272;28;20933;-77
2023/12/26 06:33:33;;;;;;;11.70;3.33;;;9.10;99.90;;;;;;5094925;28;20457;-79
2023/12/26 06:36:01;;;;;;;11.00;3.53;;;9.10;99.90;;;;;;5094712;28;20488;-79
2023/12/26 06:38:30;;;;;;;12.37;3.30;;;9.10;99.90;;;;;;5095078;28;20957;-78
2023/12/26 06:40:58;;;;;;;13.13;4.33;;;9.10;99.90;;;;;;5095304;28;20501;-81
2023/12/26 06:43:26;;;;;;;11.10;3.60;;;9.10;99.90;;;;;;5094738;28;20459;-79
2023/12/26 06:45:56;;;;;;;10.23;4.07;;;9.10;99.90;;;;;;5094827;28;20480;-78
2023/12/26 06:48:25;;;;;;;11.10;3.70;;;9.00;99.90;;;;;;5094525;28;20440;-78
2023/12/26 06:50:54;;;;;;;14.13;4.00;;;9.00;99.90;;;;;;5095080;28;20505;-78
2023/12/26 06:53:23;;;;;;;8.83;3.00;;;9.00;99.90;;;;;;5095016;28;20444;-79
2023/12/26 06:55:51;;;;;;;8.30;3.30;;;9.00;99.90;;;;;;5095257;28;20555;-80
2023/12/26 06:58:20;;;;;;;8.30;2.83;;;9.00;99.90;;;;;;5096798;28;20500;-79
2023/12/26 07:00:48;;;;;;;8.60;3.17;;;9.00;99.90;;;;;;5097164;28;20814;-80
2023/12/26 07:03:18;;;;;;;10.40;3.77;;;9.00;99.90;;;;;;5096921;28;20456;-79
2023/12/26 07:05:47;;;;;;;9.37;4.00;;;9.00;99.90;;;;;;5096961;28;20476;-79
2023/12/26 07:08:15;;;;;;;11.83;3.70;;;9.00;99.90;;;;;;5095997;28;20473;-79
2023/12/26 07:10:45;;;;;;;9.10;3.10;;;9.00;99.90;;;;;;5097976;28;20811;-79
2023/12/26 07:13:13;;;;;;;6.63;3.03;;;9.00;99.90;;;;;;5096124;28;20509;-80
2023/12/26 07:15:42;;;;;;;8.73;3.27;;;8.90;99.90;;;;;;5096395;28;20830;-80
2023/12/26 07:18:11;;;;;;;9.00;3.60;;;8.90;99.90;;;;;;5096040;28;20440;-78
2023/12/26 07:20:41;;;;;;;13.73;3.37;;;9.00;99.90;;;;;;5099087;28;20831;-79
2023/12/26 07:23:09;;;;;;;7.57;3.00;;;9.00;99.90;;;;;;5102733;28;20436;-79
2023/12/26 07:25:37;;;;;;;10.07;2.97;;;8.90;99.90;;;;;;5100553;28;20559;-79
2023/12/26 07:28:06;;;;;;;9.37;3.07;;;8.90;99.90;;;;;;5101735;28;20982;-80
2023/12/26 07:30:34;;;;;;;8.60;2.77;;;8.90;99.90;;;;;;5100633;28;20463;-81
2023/12/26 07:33:03;;;;;;;7.57;2.50;;;8.90;99.90;;;;;;5099969;28;20788;-80
2023/12/26 07:35:34;;;;;;;9.13;3.00;;;8.90;99.90;;;;;;5100097;28;20440;-81
2023/12/26 07:38:05;;;;;;;7.23;3.13;;;8.90;99.90;;;;;;5100813;28;20912;-82
2023/12/26 07:40:33;;;;;;;8.00;2.53;;;8.90;99.90;;;;;;5099783;28;20455;-82
2023/12/26 07:43:02;;;;;;;8.33;3.13;;;8.90;99.90;;;;;;5100735;28;20509;-81
2023/12/26 07:45:30;;;;;;;8.40;2.87;;;8.90;99.90;;;;;;5100148;28;20475;-80
2023/12/26 07:47:59;;;;;;;7.47;2.57;;;8.90;99.90;;;;;;5101383;28;20519;-79
2023/12/26 07:50:28;;;;;;;7.87;3.10;;;8.90;99.90;;;;;;5101313;28;20574;-81
2023/12/26 07:52:56;;;;;;;10.60;3.20;;;8.90;99.90;;;;;;5099312;28;20448;-80
2023/12/26 07:55:26;;;;;;;12.57;3.20;;;8.90;99.90;;;;;;5100409;28;20472;-79
2023/12/26 07:57:54;;;;;;;10.67;3.20;;;8.90;99.90;;;;;;5099347;28;20818;-80
2023/12/26 08:00:23;;;;;;;9.50;3.00;;;8.90;99.90;;;;;;5101719;28;20837;-81
2023/12/26 08:02:51;;;;;;;10.87;2.87;;;8.90;99.90;;;;;;5099622;28;20448;-81
2023/12/26 08:05:20;;;;;;;8.97;2.93;;;8.90;99.90;;;;;;5102311;28;20530;-81
2023/12/26 08:07:48;;;;;;;10.73;3.23;;;8.90;99.90;;;;;;5099114;28;20468;-81
2023/12/26 08:10:17;;;;;;;7.37;2.30;;;8.90;99.90;;;;;;5099006;28;20452;-80
2023/12/26 08:12:46;;;;;;;5.23;2.63;;;8.90;99.90;;;;;;5099036;28;20448;-81
2023/12/26 08:15:15;;;;;;;7.10;2.60;;;8.90;99.90;;;;;;5098667;28;20448;-78
2023/12/26 08:17:43;;;;;;;9.83;3.50;;;8.90;99.90;;;;;;5098813;28;20456;-81
2023/12/26 08:20:13;;;;;;;7.03;2.70;;;8.90;99.90;;;;;;5099311;28;20505;-81
2023/12/26 08:22:41;;;;;;;7.37;2.77;;;8.90;99.90;;;;;;5099444;28;20440;-81
2023/12/26 08:25:10;;;;;;;6.27;2.40;;;8.90;99.90;;;;;;5099410;28;20475;-80
2023/12/26 08:27:40;;;;;;;9.10;2.50;;;8.90;99.90;;;;;;5098333;28;20460;-80
2023/12/26 08:30:11;;;;;;;9.50;2.80;;;8.90;99.90;;;;;;5097714;28;20440;-83
2023/12/26 08:32:39;;;;;;;9.20;3.00;;;8.90;99.90;;;;;;5097410;28;20439;-81
2023/12/26 08:35:08;;;;;;;12.10;3.33;;;8.90;99.90;;;;;;5097145;28;20448;-80
2023/12/26 08:37:37;;;;;;;9.40;3.20;;;9.00;99.90;;;;;;5096632;28;20471;-83
2023/12/26 08:40:06;;;;;;;6.07;1.90;;;9.00;99.90;;;;;;5097564;28;20445;-83
2023/12/26 08:42:35;;;;;;;6.23;2.20;;;9.00;99.90;;;;;;5100251;28;20536;-82
2023/12/26 08:45:04;;;;;;;7.63;2.93;;;9.00;99.90;;;;;;5097327;28;20467;-83
2023/12/26 08:47:33;;;;;;;8.33;2.83;;;9.00;99.90;;;;;;5097524;28;20474;-82
2023/12/26 08:50:02;;;;;;;6.40;2.97;;;9.00;99.90;;;;;;5097010;28;20460;-82
2023/12/26 08:52:30;;;;;;;11.20;3.33;;;9.00;99.90;;;;;;5099441;28;20519;-83
2023/12/26 08:54:59;;;;;;;7.97;2.67;;;9.00;99.90;;;;;;5096896;28;20501;-81
2023/12/26 08:57:27;;;;;;;7.20;2.77;;;9.00;99.90;;;;;;5098277;28;20529;-83
2023/12/26 08:59:55;;;;;;;7.87;3.17;;;9.10;99.90;;;;;;5099716;28;20441;-82
2023/12/26 09:02:24;;;;;;;7.13;2.40;;;9.10;99.90;;;;;;5099002;28;20453;-83
2023/12/26 09:04:53;;;;;;;7.70;2.97;;;9.10;99.90;;;;;;5099434;28;20448;-82
2023/12/26 09:07:22;;;;;;;9.77;3.07;;;9.10;99.90;;;;;;5098631;28;21052;-83
2023/12/26 09:09:51;;;;;;;10.50;4.20;;;9.10;99.90;;;;;;5098705;28;20432;-83
2023/12/26 09:12:19;;;;;;;7.33;3.17;;;9.10;99.90;;;;;;5097306;28;20836;-82
2023/12/26 09:14:47;;;;;;;8.67;3.10;;;9.10;99.90;;;;;;5097264;28;20479;-83
2023/12/26 09:17:16;;;;;;;9.00;3.30;;;9.10;99.90;;;;;;5096941;28;20830;-82
2023/12/26 09:19:44;;;;;;;6.70;3.20;;;9.10;99.90;;;;;;5096779;28;20445;-83
2023/12/26 09:22:14;;;;;;;6.60;3.03;;;9.20;99.90;;;;;;5095651;28;20478;-82
2023/12/26 09:24:43;;;;;;;9.87;3.37;;;9.20;99.90;;;;;;5096530;28;20489;-82
2023/12/26 09:27:11;;;;;;;10.70;3.17;;;9.20;99.90;;;;;;5096222;28;20854;-81
2023/12/26 09:29:40;;;;;;;9.53;3.80;;;9.20;99.90;;;;;;5096839;28;20964;-82
2023/12/26 09:32:08;;;;;;;8.90;3.50;;;9.20;99.90;;;;;;5097569;28;20793;-81
2023/12/26 09:34:36;;;;;;;11.57;4.30;;;9.20;99.90;;;;;;5095910;28;20456;-82
2023/12/26 09:37:05;;;;;;;11.47;3.20;;;9.30;99.90;;;;;;5095603;28;20521;-80
2023/12/26 09:39:35;;;;;;;8.97;3.33;;;9.30;99.90;;;;;;5098067;28;20436;-80
2023/12/26 09:42:05;;;;;;;9.33;3.40;;;9.30;99.90;;;;;;5095879;28;20857;-81
2023/12/26 09:44:35;;;;;;;7.93;2.87;;;9.20;99.90;;;;;;5096542;28;20482;-81
2023/12/26 09:47:07;;;;;;;9.47;3.60;;;9.30;99.90;;;;;;5096648;28;20476;-81
2023/12/26 09:49:35;;;;;;;11.17;3.40;;;9.30;99.90;;;;;;5096514;28;20470;-80
2023/12/26 09:52:08;;;;;;;11.23;3.73;;;9.30;99.90;;;;;;5098627;28;20444;-81
2023/12/26 09:54:39;;;;;;;14.47;3.50;;;9.30;99.90;;;;;;5097230;28;20444;-79
2023/12/26 09:57:10;;;;;;;8.83;3.20;;;9.30;99.90;;;;;;5099357;28;20475;-80
2023/12/26 09:59:40;;;;;;;10.10;3.80;;;9.30;99.90;;;;;;5098525;28;20768;-81
2023/12/26 10:02:11;;;;;;;8.23;3.00;;;9.30;99.90;;;;;;5098836;28;20448;-79
2023/12/26 10:04:40;;;;;;;12.23;3.80;;;9.30;99.90;;;;;;5097406;28;20444;-80
2023/12/26 10:07:09;;;;;;;9.03;3.30;;;9.30;99.90;;;;;;5099279;28;20482;-81
2023/12/26 10:09:38;;;;;;;9.93;3.30;;;9.30;99.90;;;;;;5099946;28;20485;-79
2023/12/26 10:12:07;;;;;;;9.03;3.17;;;9.30;99.90;;;;;;5098461;28;20448;-78
2023/12/26 10:14:37;;;;;;;9.43;3.47;;;9.30;99.90;;;;;;5098672;28;20815;-80
2023/12/26 10:17:08;;;;;;;9.23;3.30;;;9.30;99.90;;;;;;5103017;28;20485;-81
2023/12/26 10:19:38;;;;;;;9.20;3.27;;;9.30;99.90;;;;;;5102480;28;20424;-81
2023/12/26 10:22:06;;;;;;;10.27;3.07;;;9.30;99.90;;;;;;5099527;28;20459;-81
2023/12/26 10:24:34;;;;;;;8.37;2.97;;;9.30;99.90;;;;;;5099502;28;20514;-82
2023/12/26 10:27:04;;;;;;;9.17;3.80;;;9.30;99.90;;;;;;5101587;28;20464;-81
2023/12/26 10:29:33;;;;;;;9.40;3.60;;;9.30;99.90;;;;;;5099631;28;20452;-80
2023/12/26 10:32:02;;;;;;;11.53;3.20;;;9.30;99.90;;;;;;5099930;28;20452;-81
2023/12/26 10:34:31;;;;;;;10.47;3.57;;;9.30;99.90;;;;;;5099683;28;20471;-81
2023/12/26 10:37:00;;;;;;;7.70;3.60;;;9.30;99.90;;;;;;5099372;28;20581;-81
2023/12/26 10:39:29;;;;;;;8.10;3.40;;;9.30;99.90;;;;;;5099394;28;20835;-80
2023/12/26 10:41:58;;;;;;;12.33;3.70;;;9.30;99.90;;;;;;5098787;28;20793;-79
2023/12/26 10:44:57;;;;;;;7.90;3.33;;;9.30;99.90;;;;;;5097358;28;20448;-81
2023/12/26 10:47:29;;;;;;;12.37;3.10;;;9.40;99.90;;;;;;5095357;28;20539;-82
2023/12/26 10:50:00;;;;;;;11.30;3.60;;;9.40;99.90;;;;;;5099282;28;20444;-80
2023/12/26 10:52:30;;;;;;;9.70;3.70;;;9.40;99.90;;;;;;5099376;28;20453;-83
2023/12/26 10:55:01;;;;;;;10.83;3.23;;;9.40;99.90;;;;;;5101738;28;20443;-81
2023/12/26 10:57:35;;;;;;;7.70;3.60;;;9.40;99.90;;;;;;5100822;28;20472;-81
2023/12/26 11:00:51;;;;;;;9.10;3.40;;;9.40;99.90;;;;;;5101518;28;20452;-80
2023/12/26 13:53:47;;;;;;;9.83;3.27;;;9.20;99.90;;;;;;5099937;28;20928;-80
2023/12/26 13:56:15;;;;;;;8.27;2.83;;;9.20;99.90;;;;;;5099175;28;20468;-80
2023/12/26 13:58:43;;;;;;;6.47;2.80;;;9.20;99.90;;;;;;5097401;28;20460;-78
2023/12/26 14:01:12;;;;;;;6.00;2.67;;;9.10;99.90;;;;;;5097222;28;20470;-77
2023/12/26 14:03:44;;;;;;;4.43;2.17;;;9.10;99.90;;;;;;5099863;28;20444;-78
2023/12/26 14:06:13;;;;;;;6.47;2.83;;;9.20;99.90;;;;;;5098764;28;21015;-78
2023/12/26 14:08:41;;;;;;;7.23;2.80;;;9.20;99.90;;;;;;5098030;28;20556;-78
2023/12/26 14:11:11;;;;;;;7.30;3.37;;;9.20;99.90;;;;;;5097427;28;20606;-81
2023/12/26 14:13:39;;;;;;;9.83;2.70;;;9.10;99.90;;;;;;5098451;28;20448;-80
2023/12/26 14:16:08;;;;;;;7.13;2.87;;;9.10;99.90;;;;;;5099584;28;20474;-80
2023/12/26 14:18:36;;;;;;;9.40;3.20;;;9.10;99.90;;;;;;5099646;28;20436;-80
2023/12/26 14:21:05;;;;;;;9.77;3.30;;;9.10;99.90;;;;;;5100784;28;20435;-79
2023/12/26 14:23:33;;;;;;;10.00;3.37;;;9.10;99.90;;;;;;5099512;28;20472;-79
2023/12/26 14:26:02;;;;;;;9.30;3.03;;;9.10;99.90;;;;;;5098041;28;20474;-79
2023/12/26 14:28:31;;;;;;;10.73;3.70;;;9.10;99.90;;;;;;5101109;28;20463;-80
2023/12/26 14:31:01;;;;;;;8.53;3.60;;;9.10;99.90;;;;;;5101877;28;20443;-80
2023/12/26 14:33:30;;;;;;;11.53;4.03;;;9.10;99.90;;;;;;5101127;28;20505;-80
2023/12/26 14:35:59;;;;;;;7.33;3.03;;;9.20;99.90;;;;;;5101236;28;21000;-79
2023/12/26 14:38:28;;;;;;;7.33;2.93;;;9.20;99.90;;;;;;5101643;28;20823;-81
2023/12/26 14:40:57;;;;;;;10.23;3.10;;;9.10;99.90;;;;;;5101895;28;20491;-81
2023/12/26 14:43:25;;;;;;;9.23;4.10;;;9.20;99.90;;;;;;5102322;28;20452;-81
2023/12/26 14:45:55;;;;;;;7.73;3.00;;;9.20;99.90;;;;;;5101414;28;20467;-81
2023/12/26 14:48:23;;;;;;;11.10;3.77;;;9.10;99.90;;;;;;5100304;28;20475;-82
2023/12/26 14:50:52;;;;;;;5.37;2.40;;;9.10;99.90;;;;;;5099969;28;20444;-81
2023/12/26 14:53:20;;;;;;;8.00;2.90;;;9.10;99.90;;;;;;5101141;28;20793;-80
2023/12/26 14:55:49;;;;;;;5.60;2.87;;;9.00;99.90;;;;;;5098939;28;20486;-82
2023/12/26 14:58:17;;;;;;;9.00;2.83;;;8.90;99.90;;;;;;5099438;28;20476;-81
2023/12/26 15:00:45;;;;;;;6.78;2.35;;;8.90;99.90;;;;;;5098841;28;20474;-79
2023/12/26 15:03:15;;;;;;;6.40;2.70;;;8.90;99.90;;;;;;5100768;28;20195;-80
2023/12/26 15:05:44;;;;;;;8.27;2.83;;;8.80;99.90;;;;;;5098800;28;20492;-81
2023/12/26 15:08:12;;;;;;;7.23;3.00;;;8.80;99.90;;;;;;5100149;28;20460;-80
2023/12/26 15:10:40;;;;;;;8.27;2.40;;;8.80;99.90;;;;;;5100112;28;20444;-81
2023/12/26 15:13:09;;;;;;;5.33;2.20;;;8.70;99.90;;;;;;5100488;28;20447;-81
2023/12/26 15:15:37;;;;;;;7.67;2.33;;;8.70;99.90;;;;;;5100691;28;20456;-81
2023/12/26 15:18:06;;;;;;;5.93;2.27;;;8.70;99.90;;;;;;5099126;28;20448;-81
2023/12/26 15:20:36;;;;;;;4.87;1.93;;;8.60;99.90;;;;;;5098904;28;20844;-81
2023/12/26 15:23:04;;;;;;;5.53;2.10;;;8.60;99.90;;;;;;5098359;28;20452;-81
2023/12/26 15:25:33;;;;;;;6.00;2.60;;;8.60;99.90;;;;;;5098815;28;20436;-80
2023/12/26 15:28:02;;;;;;;3.73;2.93;;;8.50;99.90;;;;;;5098843;28;20472;-82
2023/12/26 15:30:30;;;;;;;6.97;2.23;;;8.50;99.90;;;;;;5098880;28;20436;-80
2023/12/26 15:32:58;;;;;;;4.60;1.80;;;8.40;99.90;;;;;;5098846;28;20451;-80
2023/12/26 15:35:27;;;;;;;5.90;1.87;;;8.40;99.90;;;;;;5098650;28;20444;-80
2023/12/26 15:37:57;;;;;;;5.70;1.97;;;8.40;99.90;;;;;;5097788;28;20444;-79
2023/12/26 15:40:25;;;;;;;9.37;2.50;;;8.30;99.90;;;;;;5099169;28;20436;-78
2023/12/26 15:42:53;;;;;;;5.93;3.50;;;8.30;99.90;;;;;;5097451;28;20462;-79
2023/12/26 15:45:22;;;;;;;9.53;2.77;;;8.30;99.90;;;;;;5098346;28;20451;-80
2023/12/26 15:47:54;;;;;;;5.70;2.00;;;8.20;99.90;;;;;;5097650;28;20473;-80
2023/12/26 15:50:23;;;;;;;4.90;2.00;;;8.20;99.90;;;;;;5099720;28;20883;-81
2023/12/26 15:52:53;;;;;;;4.00;1.83;;;8.20;99.90;;;;;;5099999;28;20489;-79